createdAt,value
2018-08-25T00:00:20.845Z,7.17
2018-08-25T00:02:50.228Z,7.37
2018-08-25T00:05:19.739Z,6.47
2018-08-25T00:07:49.028Z,7.30
2018-08-25T00:10:18.540Z,6.67
2018-08-25T00:12:47.808Z,6.70
2018-08-25T00:15:17.100Z,8.53
2018-08-25T00:17:46.446Z,7.07
2018-08-25T00:20:15.820Z,7.43
2018-08-25T00:22:45.348Z,8.70
2018-08-25T00:25:14.798Z,9.87
2018-08-25T00:27:44.056Z,8.57
2018-08-25T00:30:18.184Z,6.80
2018-08-25T00:32:47.560Z,7.60
2018-08-25T00:35:16.684Z,7.07
2018-08-25T00:37:45.949Z,7.00
2018-08-25T00:40:15.564Z,6.83
2018-08-25T00:42:44.919Z,6.97
2018-08-25T00:45:14.311Z,7.10
2018-08-25T00:47:43.761Z,7.17
2018-08-25T00:50:13.066Z,10.93
2018-08-25T00:52:42.028Z,7.17
2018-08-25T00:55:11.108Z,8.07
2018-08-25T00:57:40.203Z,7.63
2018-08-25T01:00:09.534Z,8.40
2018-08-25T01:02:38.644Z,9.87
2018-08-25T01:05:07.786Z,8.53
2018-08-25T01:07:37.183Z,6.77
2018-08-25T01:10:06.265Z,7.50
2018-08-25T01:12:35.563Z,7.57
2018-08-25T01:15:04.905Z,8.13
2018-08-25T01:17:34.187Z,7.73
2018-08-25T01:20:03.475Z,10.30
2018-08-25T01:22:32.780Z,7.40
2018-08-25T01:25:02.077Z,8.13
2018-08-25T01:27:31.422Z,8.13
2018-08-25T01:30:00.719Z,7.50
2018-08-25T01:32:30.212Z,7.47
2018-08-25T01:34:59.203Z,8.30
2018-08-25T01:37:28.720Z,6.63
2018-08-25T01:39:58.108Z,7.10
2018-08-25T01:42:27.323Z,8.93
2018-08-25T01:44:56.584Z,8.53
2018-08-25T01:47:25.802Z,8.53
2018-08-25T01:49:55.168Z,10.10
2018-08-25T01:52:24.574Z,7.77
2018-08-25T01:54:53.639Z,8.20
2018-08-25T01:57:22.711Z,8.00
2018-08-25T01:59:52.013Z,9.13
2018-08-25T02:02:21.363Z,8.30
2018-08-25T02:04:50.779Z,9.33
2018-08-25T02:07:20.202Z,7.93
2018-08-25T02:09:49.247Z,8.93
2018-08-25T02:12:18.312Z,9.23
2018-08-25T02:14:47.478Z,8.00
2018-08-25T02:17:16.720Z,8.93
2018-08-25T02:19:45.879Z,9.37
2018-08-25T02:22:15.059Z,8.10
2018-08-25T02:24:44.154Z,8.37
2018-08-25T02:27:13.459Z,8.10
2018-08-25T02:29:42.800Z,7.67
2018-08-25T02:32:11.925Z,8.33
2018-08-25T02:34:41.097Z,9.47
2018-08-25T02:37:10.611Z,7.87
2018-08-25T02:39:39.963Z,8.53
2018-08-25T02:42:09.462Z,9.03
2018-08-25T02:44:38.599Z,8.83
2018-08-25T02:47:08.023Z,8.87
2018-08-25T02:49:36.932Z,11.13
2018-08-25T02:52:06.159Z,8.33
2018-08-25T02:54:35.103Z,8.77
2018-08-25T02:57:04.159Z,8.63
2018-08-25T02:59:33.311Z,9.93
2018-08-25T03:02:03.040Z,8.73
2018-08-25T03:04:32.494Z,9.67
2018-08-25T03:07:01.618Z,9.80
2018-08-25T03:09:30.989Z,9.83
2018-08-25T03:12:00.009Z,11.67
2018-08-25T03:14:29.296Z,10.57
2018-08-25T03:16:58.720Z,12.23
2018-08-25T03:19:28.098Z,10.00
2018-08-25T03:21:57.549Z,11.33
2018-08-25T03:24:27.018Z,10.70
2018-08-25T03:26:56.233Z,11.13
2018-08-25T03:29:25.222Z,11.33
2018-08-25T03:31:54.145Z,10.67
2018-08-25T03:34:23.532Z,11.37
2018-08-25T03:36:52.659Z,11.77
2018-08-25T03:39:22.021Z,11.53
2018-08-25T03:41:51.391Z,11.73
2018-08-25T03:44:20.912Z,10.67
2018-08-25T03:46:50.263Z,11.57
2018-08-25T03:49:19.362Z,12.60
2018-08-25T03:51:48.409Z,13.93
2018-08-25T03:54:17.918Z,11.43
2018-08-25T03:56:47.219Z,12.00
2018-08-25T03:59:16.604Z,11.83
2018-08-25T04:01:45.881Z,11.87
2018-08-25T04:04:15.045Z,14.07
2018-08-25T04:06:44.347Z,11.67
2018-08-25T04:09:14.746Z,14.50
2018-08-25T04:11:43.655Z,12.40
2018-08-25T04:14:13.415Z,12.30
2018-08-25T04:16:42.511Z,11.47
2018-08-25T04:19:21.024Z,11.97
2018-08-25T04:21:50.764Z,11.40
2018-08-25T04:24:20.000Z,11.03
2018-08-25T04:26:49.259Z,11.40
2018-08-25T04:29:18.747Z,12.20
2018-08-25T04:31:48.148Z,11.87
2018-08-25T04:34:17.511Z,11.50
2018-08-25T04:36:46.792Z,11.97
2018-08-25T04:39:16.192Z,11.30
2018-08-25T04:41:45.552Z,11.50
2018-08-25T04:44:14.532Z,10.60
2018-08-25T04:46:43.794Z,13.93
2018-08-25T04:49:12.918Z,10.53
2018-08-25T04:51:42.000Z,15.73
2018-08-25T04:54:11.284Z,13.67
2018-08-25T04:56:40.979Z,11.67
2018-08-25T04:59:10.231Z,11.17
2018-08-25T05:01:39.733Z,10.33
2018-08-25T05:04:09.236Z,14.87
2018-08-25T05:06:38.645Z,13.67
2018-08-25T05:09:09.401Z,10.83
2018-08-25T05:11:38.739Z,10.00
2018-08-25T05:14:08.097Z,36.37
2018-08-25T05:16:37.151Z,26.23
2018-08-25T05:19:06.424Z,13.87
2018-08-25T05:21:35.621Z,12.43
2018-08-25T05:24:04.732Z,47.23
2018-08-25T05:26:33.734Z,40.27
2018-08-25T05:29:03.149Z,32.00
2018-08-25T05:31:32.153Z,23.03
2018-08-25T05:34:01.363Z,17.90
2018-08-25T05:36:30.856Z,16.93
2018-08-25T05:38:59.925Z,22.97
2018-08-25T05:41:29.333Z,13.47
2018-08-25T05:43:58.691Z,13.93
2018-08-25T05:46:28.048Z,11.77
2018-08-25T05:48:57.309Z,12.60
2018-08-25T05:51:26.914Z,12.17
2018-08-25T05:53:55.936Z,12.20
2018-08-25T05:56:25.335Z,10.30
2018-08-25T05:58:54.557Z,9.43
2018-08-25T06:01:24.030Z,8.10
2018-08-25T06:03:53.603Z,10.23
2018-08-25T06:06:22.828Z,8.80
2018-08-25T06:08:52.058Z,10.70
2018-08-25T06:11:21.195Z,9.93
2018-08-25T06:13:50.118Z,9.27
2018-08-25T06:16:19.471Z,9.20
2018-08-25T06:18:48.559Z,11.53
2018-08-25T06:21:17.785Z,10.00
2018-08-25T06:23:47.042Z,9.23
2018-08-25T06:26:16.418Z,9.77
2018-08-25T06:28:45.629Z,12.57
2018-08-25T06:31:14.619Z,11.27
2018-08-25T06:33:43.679Z,9.40
2018-08-25T06:36:12.938Z,9.13
2018-08-25T06:38:42.031Z,9.27
2018-08-25T06:41:11.300Z,9.50
2018-08-25T06:43:40.671Z,9.77
2018-08-25T06:46:10.608Z,8.83
2018-08-25T06:48:41.014Z,10.47
2018-08-25T06:51:10.522Z,10.00
2018-08-25T06:53:39.907Z,9.90
2018-08-25T06:56:08.936Z,10.63
2018-08-25T06:58:38.324Z,8.23
2018-08-25T07:01:07.806Z,9.07
2018-08-25T07:03:37.345Z,10.50
2018-08-25T07:06:06.671Z,10.30
2018-08-25T07:08:35.812Z,12.53
2018-08-25T07:11:05.021Z,8.50
2018-08-25T07:13:34.303Z,8.00
2018-08-25T07:16:03.423Z,10.30
2018-08-25T07:18:32.808Z,9.70
2018-08-25T07:21:02.248Z,15.73
2018-08-25T07:23:31.753Z,12.60
2018-08-25T07:26:01.110Z,9.43
2018-08-25T07:28:30.418Z,9.67
2018-08-25T07:30:59.609Z,12.60
2018-08-25T07:33:28.644Z,12.50
2018-08-25T07:35:58.007Z,11.93
2018-08-25T07:38:27.677Z,11.07
2018-08-25T07:40:57.126Z,9.77
2018-08-25T07:43:26.667Z,11.23
2018-08-25T07:45:55.808Z,10.73
2018-08-25T07:48:25.325Z,10.77
2018-08-25T07:50:54.644Z,10.67
2018-08-25T07:53:24.269Z,11.30
2018-08-25T07:55:54.333Z,12.17
2018-08-25T07:58:23.858Z,16.50
2018-08-25T08:00:53.000Z,10.73
2018-08-25T08:03:22.346Z,10.43
2018-08-25T08:05:51.919Z,12.37
2018-08-25T08:08:21.171Z,12.40
2018-08-25T08:10:50.699Z,11.23
2018-08-25T08:13:20.256Z,11.83
2018-08-25T08:15:49.432Z,13.33
2018-08-25T08:18:18.355Z,14.37
2018-08-25T08:20:47.610Z,11.60
2018-08-25T08:23:16.892Z,13.17
2018-08-25T08:25:46.108Z,24.00
2018-08-25T08:28:15.330Z,11.37
2018-08-25T08:30:44.673Z,10.37
2018-08-25T08:33:13.837Z,14.67
2018-08-25T08:35:42.917Z,11.17
2018-08-25T08:38:12.185Z,10.27
2018-08-25T08:40:41.094Z,8.53
2018-08-25T08:43:10.395Z,9.05
2018-08-25T08:45:39.611Z,9.80
2018-08-25T08:48:08.997Z,10.80
2018-08-25T08:50:38.251Z,10.17
2018-08-25T08:53:07.422Z,9.03
2018-08-25T08:55:36.456Z,9.50
2018-08-25T08:58:05.793Z,10.10
2018-08-25T09:00:35.155Z,10.08
2018-08-25T09:03:04.579Z,8.63
2018-08-25T09:05:33.899Z,10.60
2018-08-25T09:08:04.305Z,8.70
2018-08-25T09:10:34.408Z,9.78
2018-08-25T09:13:03.946Z,9.20
2018-08-25T09:15:33.351Z,8.90
2018-08-25T09:18:02.891Z,9.03
2018-08-25T09:20:32.073Z,10.08
2018-08-25T09:23:01.383Z,9.33
2018-08-25T09:25:31.495Z,9.35
2018-08-25T09:28:00.958Z,10.38
2018-08-25T09:30:30.368Z,9.50
2018-08-25T09:32:59.650Z,9.20
2018-08-25T09:35:28.814Z,9.05
2018-08-25T09:37:58.039Z,9.13
2018-08-25T09:40:27.306Z,9.13
2018-08-25T09:42:56.903Z,9.33
2018-08-25T09:45:26.108Z,9.85
2018-08-25T09:47:54.958Z,10.13
2018-08-25T09:50:24.341Z,10.08
2018-08-25T09:52:53.608Z,9.28
2018-08-25T09:55:23.042Z,9.45
2018-08-25T09:57:52.107Z,9.50
2018-08-25T10:00:21.449Z,11.28
2018-08-25T10:02:50.496Z,9.85
2018-08-25T10:05:19.918Z,9.55
2018-08-25T10:07:48.927Z,9.50
2018-08-25T10:10:18.282Z,9.10
2018-08-25T10:12:47.486Z,9.20
2018-08-25T10:15:16.933Z,9.05
2018-08-25T10:17:45.948Z,9.85
2018-08-25T10:20:15.266Z,9.65
2018-08-25T10:22:44.612Z,8.23
2018-08-25T10:25:13.799Z,7.55
2018-08-25T10:27:43.305Z,8.73
2018-08-25T10:30:12.672Z,8.08
2018-08-25T10:32:41.932Z,8.13
2018-08-25T10:35:11.150Z,8.35
2018-08-25T10:37:40.419Z,8.30
2018-08-25T10:40:09.761Z,7.95
2018-08-25T10:42:39.009Z,8.00
2018-08-25T10:45:08.259Z,8.13
2018-08-25T10:47:37.435Z,7.75
2018-08-25T10:50:06.913Z,7.95
2018-08-25T10:52:36.119Z,7.87
2018-08-25T10:55:05.495Z,8.38
2018-08-25T10:57:34.735Z,8.13
2018-08-25T11:00:04.002Z,8.00
2018-08-25T11:02:33.363Z,8.33
2018-08-25T11:05:02.225Z,8.58
2018-08-25T11:07:31.596Z,7.80
2018-08-25T11:10:00.892Z,8.38
2018-08-25T11:12:30.149Z,9.00
2018-08-25T11:14:59.843Z,8.00
2018-08-25T11:17:28.844Z,8.08
2018-08-25T11:19:58.180Z,8.80
2018-08-25T11:22:27.367Z,8.10
2018-08-25T11:24:56.777Z,9.13
2018-08-25T11:27:26.035Z,8.08
2018-08-25T11:29:55.320Z,9.08
2018-08-25T11:32:24.646Z,7.22
2018-08-25T11:34:53.781Z,6.37
2018-08-25T11:37:23.093Z,6.75
2018-08-25T11:39:52.519Z,7.17
2018-08-25T11:42:21.880Z,7.12
2018-08-25T11:44:51.233Z,7.00
2018-08-25T11:47:20.272Z,7.45
2018-08-25T11:49:49.539Z,7.75
2018-08-25T11:52:18.764Z,7.33
2018-08-25T11:54:47.721Z,8.05
2018-08-25T11:57:16.916Z,7.97
2018-08-25T11:59:46.329Z,8.88
2018-08-25T12:02:16.035Z,7.58
2018-08-25T12:04:46.199Z,8.18
2018-08-25T12:07:15.660Z,8.28
2018-08-25T12:09:44.929Z,7.78
2018-08-25T12:12:14.274Z,8.30
2018-08-25T12:14:43.406Z,7.20
2018-08-25T12:17:12.701Z,7.73
2018-08-25T12:19:41.737Z,10.67
2018-08-25T12:22:10.988Z,9.93
2018-08-25T12:24:40.245Z,8.67
2018-08-25T12:27:09.171Z,8.23
2018-08-25T12:29:38.545Z,10.07
2018-08-25T12:32:07.817Z,9.43
2018-08-25T12:34:37.204Z,9.33
2018-08-25T12:37:06.456Z,7.60
2018-08-25T12:39:35.576Z,7.70
2018-08-25T12:42:04.633Z,8.00
2018-08-25T12:44:33.874Z,8.47
2018-08-25T12:47:03.203Z,9.00
2018-08-25T12:49:32.367Z,7.17
2018-08-25T12:52:01.615Z,7.53
2018-08-25T12:54:30.912Z,8.03
2018-08-25T12:57:00.064Z,9.25
2018-08-25T12:59:29.497Z,9.78
2018-08-25T13:01:58.832Z,8.08
2018-08-25T13:04:28.171Z,7.10
2018-08-25T13:06:57.195Z,7.47
2018-08-25T13:09:26.112Z,7.37
2018-08-25T13:11:55.454Z,8.13
2018-08-25T13:14:24.441Z,7.25
2018-08-25T13:16:53.793Z,8.20
2018-08-25T13:19:23.046Z,7.67
2018-08-25T13:21:52.332Z,9.03
2018-08-25T13:24:21.511Z,7.20
2018-08-25T13:26:50.817Z,7.45
2018-08-25T13:29:20.108Z,7.80
2018-08-25T13:31:49.543Z,10.00
2018-08-25T13:34:18.961Z,9.85
2018-08-25T13:36:48.260Z,10.48
2018-08-25T13:39:17.616Z,9.03
2018-08-25T13:41:47.148Z,7.67
2018-08-25T13:44:16.650Z,8.50
2018-08-25T13:46:46.000Z,11.80
2018-08-25T13:49:15.332Z,8.47
2018-08-25T13:51:44.574Z,8.47
2018-08-25T13:54:13.518Z,8.63
2018-08-25T13:56:42.713Z,9.37
2018-08-25T13:59:11.868Z,9.63
2018-08-25T14:01:41.123Z,8.27
2018-08-25T14:04:10.379Z,7.63
2018-08-25T14:06:39.872Z,8.17
2018-08-25T14:09:09.425Z,6.93
2018-08-25T14:11:38.701Z,6.50
2018-08-25T14:14:07.853Z,6.60
2018-08-25T14:16:37.159Z,6.63
2018-08-25T14:19:06.252Z,6.63
2018-08-25T14:21:35.645Z,7.00
2018-08-25T14:24:05.120Z,7.37
2018-08-25T14:26:34.423Z,7.27
2018-08-25T14:29:03.529Z,6.90
2018-08-25T14:31:32.773Z,7.30
2018-08-25T14:34:01.975Z,7.80
2018-08-25T14:36:31.416Z,8.67
2018-08-25T14:39:00.605Z,12.17
2018-08-25T14:41:29.739Z,7.70
2018-08-25T14:43:58.980Z,7.07
2018-08-25T14:46:28.163Z,7.90
2018-08-25T14:48:57.412Z,9.17
2018-08-25T14:51:26.532Z,6.83
2018-08-25T14:53:55.816Z,6.63
2018-08-25T14:56:25.108Z,6.53
2018-08-25T14:58:54.415Z,6.63
2018-08-25T15:01:23.937Z,6.77
2018-08-25T15:03:53.180Z,6.40
2018-08-25T15:06:22.134Z,6.97
2018-08-25T15:08:51.101Z,7.20
2018-08-25T15:11:20.212Z,6.50
2018-08-25T15:13:49.765Z,7.60
2018-08-25T15:16:18.919Z,8.73
2018-08-25T15:18:48.332Z,10.83
2018-08-25T15:21:17.676Z,9.97
2018-08-25T15:23:46.854Z,9.07
2018-08-25T15:26:15.881Z,9.07
2018-08-25T15:28:45.164Z,8.97
2018-08-25T15:31:14.139Z,7.10
2018-08-25T15:33:43.275Z,7.13
2018-08-25T15:36:12.520Z,7.30
2018-08-25T15:38:41.847Z,7.50
2018-08-25T15:41:10.825Z,7.20
2018-08-25T15:43:39.862Z,7.70
2018-08-25T15:46:09.258Z,9.80
2018-08-25T15:48:38.364Z,8.33
2018-08-25T15:51:07.753Z,9.67
2018-08-25T15:53:36.842Z,8.87
2018-08-25T15:56:06.059Z,8.73
2018-08-25T15:58:35.466Z,8.30
2018-08-25T16:01:04.640Z,9.53
2018-08-25T16:03:34.124Z,11.80
2018-08-25T16:06:03.147Z,11.13
2018-08-25T16:08:32.467Z,12.53
2018-08-25T16:11:01.337Z,38.43
2018-08-25T16:13:30.532Z,23.73
2018-08-25T16:16:00.069Z,32.00
2018-08-25T16:18:29.599Z,25.43
2018-08-25T16:20:58.956Z,50.13
2018-08-25T16:23:28.243Z,25.57
2018-08-25T16:25:57.746Z,15.07
2018-08-25T16:28:26.784Z,10.03
2018-08-25T16:30:56.185Z,10.37
2018-08-25T16:33:25.592Z,8.47
2018-08-25T16:35:54.897Z,10.80
2018-08-25T16:38:24.233Z,11.17
2018-08-25T16:40:53.737Z,10.50
2018-08-25T16:43:23.121Z,9.50
2018-08-25T16:45:52.707Z,11.40
2018-08-25T16:48:21.843Z,9.90
2018-08-25T16:50:51.348Z,10.50
2018-08-25T16:53:20.551Z,10.30
2018-08-25T16:55:49.967Z,17.77
2018-08-25T16:58:18.939Z,16.13
2018-08-25T17:00:48.179Z,10.90
2018-08-25T17:03:17.408Z,9.87
2018-08-25T17:05:46.334Z,9.40
2018-08-25T17:08:15.698Z,10.27
2018-08-25T17:10:45.028Z,10.30
2018-08-25T17:13:14.162Z,10.73
2018-08-25T17:15:43.510Z,10.53
2018-08-25T17:18:12.816Z,14.13
2018-08-25T17:20:42.179Z,10.27
2018-08-25T17:23:11.777Z,9.60
2018-08-25T17:25:41.071Z,10.47
2018-08-25T17:28:10.204Z,9.07
2018-08-25T17:30:39.257Z,9.03
2018-08-25T17:33:08.675Z,10.87
2018-08-25T17:35:37.876Z,10.03
2018-08-25T17:38:07.421Z,8.90
2018-08-25T17:40:36.677Z,8.70
2018-08-25T17:43:05.975Z,11.47
2018-08-25T17:45:35.463Z,13.07
2018-08-25T17:48:05.183Z,11.07
2018-08-25T17:50:34.510Z,8.90
2018-08-25T17:53:03.724Z,8.70
2018-08-25T17:55:33.080Z,8.83
2018-08-25T17:58:02.079Z,8.80
2018-08-25T18:00:31.438Z,8.70
2018-08-25T18:03:00.721Z,9.03
2018-08-25T18:05:29.757Z,9.03
2018-08-25T18:07:58.826Z,8.80
2018-08-25T18:10:28.136Z,9.60
2018-08-25T18:12:57.496Z,9.07
2018-08-25T18:15:26.760Z,9.30
2018-08-25T18:17:56.187Z,9.17
2018-08-25T18:20:25.283Z,8.77
2018-08-25T18:22:54.282Z,9.20
2018-08-25T18:25:23.271Z,9.20
2018-08-25T18:27:52.466Z,8.57
2018-08-25T18:30:21.994Z,9.03
2018-08-25T18:32:51.130Z,8.57
2018-08-25T18:35:20.555Z,8.40
2018-08-25T18:37:49.835Z,9.03
2018-08-25T18:40:18.853Z,8.50
2018-08-25T18:42:47.697Z,9.43
2018-08-25T18:45:17.021Z,8.70
2018-08-25T18:47:46.397Z,8.77
2018-08-25T18:50:15.746Z,9.50
2018-08-25T18:52:44.790Z,9.40
2018-08-25T18:55:14.290Z,9.70
2018-08-25T18:57:43.802Z,9.27
2018-08-25T19:00:13.088Z,10.00
2018-08-25T19:02:42.155Z,9.30
2018-08-25T19:05:11.595Z,9.17
2018-08-25T19:07:41.073Z,9.57
2018-08-25T19:10:10.367Z,9.83
2018-08-25T19:12:39.768Z,10.27
2018-08-25T19:15:09.051Z,10.20
2018-08-25T19:17:38.458Z,10.13
2018-08-25T19:20:07.796Z,9.97
2018-08-25T19:22:36.971Z,10.13
2018-08-25T19:25:06.287Z,9.77
2018-08-25T19:27:35.528Z,9.60
2018-08-25T19:30:05.039Z,9.63
2018-08-25T19:32:34.184Z,9.60
2018-08-25T19:35:03.471Z,9.40
2018-08-25T19:37:32.889Z,9.23
2018-08-25T19:40:02.133Z,9.17
2018-08-25T19:42:31.132Z,9.07
2018-08-25T19:45:00.151Z,8.03
2018-08-25T19:47:29.473Z,9.70
2018-08-25T19:49:58.729Z,9.70
2018-08-25T19:52:27.791Z,9.20
2018-08-25T19:54:56.942Z,8.27
2018-08-25T19:57:26.210Z,9.13
2018-08-25T19:59:55.398Z,9.23
2018-08-25T20:02:24.571Z,9.53
2018-08-25T20:04:53.496Z,9.50
2018-08-25T20:07:22.872Z,9.53
2018-08-25T20:09:52.060Z,8.93
2018-08-25T20:12:21.487Z,8.90
2018-08-25T20:14:50.691Z,9.07
2018-08-25T20:17:19.935Z,9.77
2018-08-25T20:19:49.477Z,9.20
2018-08-25T20:22:18.553Z,9.17
2018-08-25T20:24:47.984Z,10.33
2018-08-25T20:27:17.244Z,10.43
2018-08-25T20:29:46.251Z,9.83
2018-08-25T20:32:15.532Z,10.93
2018-08-25T20:34:44.507Z,10.00
2018-08-25T20:37:13.773Z,10.87
2018-08-25T20:39:43.318Z,9.67
2018-08-25T20:42:12.772Z,10.03
2018-08-25T20:44:42.126Z,9.63
2018-08-25T20:47:11.466Z,9.83
2018-08-25T20:49:40.959Z,9.97
2018-08-25T20:52:10.824Z,10.17
2018-08-25T20:54:40.250Z,10.80
2018-08-25T20:57:09.665Z,10.30
2018-08-25T20:59:38.786Z,10.13
2018-08-25T21:02:07.784Z,10.50
2018-08-25T21:04:37.119Z,10.73
2018-08-25T21:07:06.465Z,9.77
2018-08-25T21:09:35.795Z,10.57
2018-08-25T21:12:05.268Z,10.27
2018-08-25T21:14:34.823Z,9.70
2018-08-25T21:17:04.231Z,10.17
2018-08-25T21:19:33.169Z,9.97
2018-08-25T21:22:02.566Z,12.47
2018-08-25T21:24:31.712Z,10.23
2018-08-25T21:27:00.937Z,10.53
2018-08-25T21:29:30.276Z,10.90
2018-08-25T21:31:59.493Z,10.80
2018-08-25T21:34:28.594Z,10.83
2018-08-25T21:36:57.920Z,10.53
2018-08-25T21:39:27.315Z,10.17
2018-08-25T21:41:56.372Z,10.20
2018-08-25T21:44:25.758Z,10.27
2018-08-25T21:46:54.995Z,10.73
2018-08-25T21:49:24.044Z,10.63
2018-08-25T21:51:53.244Z,10.80
2018-08-25T21:54:22.431Z,11.03
2018-08-25T21:56:51.748Z,10.03
2018-08-25T21:59:21.277Z,11.37
2018-08-25T22:01:55.511Z,10.20
2018-08-25T22:04:24.895Z,10.43
2018-08-25T22:06:54.099Z,9.77
2018-08-25T22:09:23.381Z,10.10
2018-08-25T22:11:52.540Z,9.67
2018-08-25T22:14:21.859Z,10.37
2018-08-25T22:16:51.404Z,10.20
2018-08-25T22:19:20.720Z,10.00
2018-08-25T22:21:50.195Z,9.80
2018-08-25T22:24:19.216Z,10.23
2018-08-25T22:26:48.209Z,9.23
2018-08-25T22:29:17.541Z,10.83
2018-08-25T22:31:46.877Z,10.00
2018-08-25T22:34:16.081Z,10.17
2018-08-25T22:36:45.471Z,10.47
2018-08-25T22:39:14.828Z,10.50
2018-08-25T22:41:44.123Z,11.00
2018-08-25T22:44:13.757Z,10.63
2018-08-25T22:46:43.181Z,10.57
2018-08-25T22:49:12.218Z,11.00
2018-08-25T22:51:41.355Z,10.60
2018-08-25T22:54:10.671Z,10.60
2018-08-25T22:56:39.968Z,11.30
2018-08-25T22:59:09.326Z,10.53
2018-08-25T23:01:38.638Z,10.50
2018-08-25T23:04:08.003Z,10.87
2018-08-25T23:06:37.271Z,10.43
2018-08-25T23:09:08.194Z,10.03
2018-08-25T23:11:37.568Z,10.23
2018-08-25T23:14:06.602Z,9.60
2018-08-25T23:16:36.052Z,10.03
2018-08-25T23:19:05.576Z,10.50
2018-08-25T23:21:34.951Z,9.70
2018-08-25T23:24:04.001Z,10.27
2018-08-25T23:26:33.444Z,10.50
2018-08-25T23:29:02.659Z,11.50
2018-08-25T23:31:31.844Z,9.30
2018-08-25T23:34:01.058Z,11.17
2018-08-25T23:36:30.396Z,9.70
2018-08-25T23:38:59.459Z,9.80
2018-08-25T23:41:28.543Z,10.37
2018-08-25T23:43:57.736Z,9.97
2018-08-25T23:46:27.099Z,9.97
2018-08-25T23:48:56.413Z,9.90
2018-08-25T23:51:25.631Z,10.80
2018-08-25T23:53:55.076Z,10.77
2018-08-25T23:56:24.139Z,10.50
2018-08-25T23:58:53.328Z,10.60
